»·PEaware :: FDX250 KLAX-KPHX

FDX250 :: KLAX-KPHX

FLIGHT INFORMATION

Flight Status: Arrived
Operator:
Federal Express
More flights by this operator :: More flights under this callsign
Pilot: Anonymous 14085 (14085)
Aircraft: BOEING 727-200
(B722)
More flights by this aircraft type
Origin: KLAX Los Angeles Intl
United States
Destination: KPHX Phoenix Sky Harbor Intl
United States
More flights between these airports :: More routes between these airports
Route: +LAXX9 TRM BLH BLH4
File this flight plan on PilotEdge
Remarks:
Altitude:
(Current/Filed)
33,000ft
Speed:
(Current/Filed)
480kts
Departed: 24-Jan-17 04:20 PM
Arrived: 24-Jan-17 05:22 PM
Distance/Time
Traveled:
321nm/1:02
Distance/Time
To Go:
Arrived

Flight Plot

Page will automatically refresh every two minutes.


Map Options




Map Legend


Flown Route
Filed Route
Departure Airport
Arrival Airport
Navaid (VOR, NDB)
Fix

Horizontal Profiles

Position Reports

Time Latitude Longitude Heading Altitude Ground
Speed
24-Jan-17 15:54 33.935409 -118.380443 80 137ft 0kts
24-Jan-17 15:55 33.935409 -118.380443 80 137ft 0kts
24-Jan-17 15:56 33.935409 -118.380443 80 137ft 0kts
24-Jan-17 15:57 33.935409 -118.380443 80 137ft 0kts
24-Jan-17 15:58 33.935409 -118.380443 80 137ft 0kts
24-Jan-17 15:59 33.935409 -118.380443 80 137ft 0kts
24-Jan-17 16:00 33.935409 -118.380443 80 137ft 0kts
24-Jan-17 16:01 33.935409 -118.380443 80 137ft 0kts
24-Jan-17 16:02 33.935409 -118.380443 80 137ft 0kts
24-Jan-17 16:03 33.935409 -118.380443 80 137ft 0kts
24-Jan-17 16:04 33.935409 -118.380443 80 137ft 0kts
24-Jan-17 16:05 33.935409 -118.380443 80 137ft 0kts
24-Jan-17 16:06 33.935409 -118.380443 80 137ft 0kts
24-Jan-17 16:07 33.935409 -118.380443 80 137ft 0kts
24-Jan-17 16:08 33.935409 -118.380443 80 137ft 0kts
24-Jan-17 16:09 33.935409 -118.380443 80 137ft 0kts
24-Jan-17 16:10 33.935409 -118.380443 80 137ft 0kts
24-Jan-17 16:11 33.935409 -118.380443 80 137ft 0kts
24-Jan-17 16:12 33.935409 -118.380443 80 137ft 0kts
24-Jan-17 16:13 33.935409 -118.380443 80 137ft 0kts
24-Jan-17 16:14 33.935409 -118.380443 80 137ft 0kts
24-Jan-17 16:15 33.935409 -118.380443 80 137ft 0kts
24-Jan-17 16:16 33.935199 -118.381149 38 137ft 9kts
24-Jan-17 16:17 33.934918 -118.381277 3 137ft 0kts
24-Jan-17 16:18 33.936177 -118.382032 269 137ft 12kts
24-Jan-17 16:19 33.936342 -118.382588 315 137ft 0kts
24-Jan-17 16:20 33.935931 -118.396404 262 137ft 143kts
24-Jan-17 16:21 33.927725 -118.464841 262 1616ft 254kts
24-Jan-17 16:22 33.920030 -118.549977 261 4345ft 275kts
24-Jan-17 16:23 33.909450 -118.642413 261 5050ft 267kts
24-Jan-17 16:24 33.899135 -118.723398 252 4633ft 223kts
24-Jan-17 16:25 33.855805 -118.733216 152 5255ft 177kts
24-Jan-17 16:26 33.803994 -118.696844 151 7286ft 251kts
24-Jan-17 16:27 33.737275 -118.651079 151 9516ft 302kts
24-Jan-17 16:28 33.659002 -118.597999 151 11764ft 344kts
24-Jan-17 16:29 33.582507 -118.545730 151 14440ft 351kts
24-Jan-17 16:30 33.525534 -118.460130 89 16819ft 364kts
24-Jan-17 16:31 33.532838 -118.325043 83 16740ft 445kts
24-Jan-17 16:32 33.562120 -118.185315 65 20128ft 413kts
24-Jan-17 16:33 33.576607 -118.044226 84 21740ft 435kts
24-Jan-17 16:34 33.582258 -117.897275 86 23090ft 456kts
24-Jan-17 16:35 33.585937 -117.782879 86 23095ft 492kts
24-Jan-17 16:36 33.591377 -117.613426 86 24034ft 512kts
24-Jan-17 16:37 33.596624 -117.444714 86 26116ft 512kts
24-Jan-17 16:38 33.601642 -117.275077 86 27587ft 514kts
24-Jan-17 16:39 33.606502 -117.102828 86 28711ft 519kts
24-Jan-17 16:40 33.611143 -116.929981 87 29991ft 517kts
24-Jan-17 16:41 33.615352 -116.760237 88 31427ft 508kts
24-Jan-17 16:42 33.619411 -116.590737 88 32274ft 510kts
24-Jan-17 16:43 33.623272 -116.420454 88 32929ft 517kts
24-Jan-17 16:44 33.628441 -116.244331 86 32918ft 539kts
24-Jan-17 16:45 33.634780 -116.061990 90 32906ft 553kts
24-Jan-17 16:46 33.634413 -115.878914 92 32907ft 558kts
24-Jan-17 16:47 33.628927 -115.692103 92 32907ft 562kts
24-Jan-17 16:48 33.622970 -115.504090 92 32902ft 566kts
24-Jan-17 16:49 33.616699 -115.315456 92 32905ft 570kts
24-Jan-17 16:50 33.610169 -115.126035 93 32904ft 565kts
24-Jan-17 16:51 33.603393 -114.939038 94 32745ft 561kts
24-Jan-17 16:52 33.596511 -114.756845 94 31584ft 548kts
24-Jan-17 16:53 33.584772 -114.575974 108 30003ft 523kts
24-Jan-17 16:54 33.561998 -114.406944 99 28812ft 514kts
24-Jan-17 16:55 33.544534 -114.236130 98 26905ft 521kts
24-Jan-17 16:56 33.526784 -114.062742 98 24967ft 527kts
24-Jan-17 16:57 33.508733 -113.888671 98 23314ft 520kts
24-Jan-17 16:58 33.469734 -113.733325 111 23369ft 473kts
24-Jan-17 16:59 33.400454 -113.612456 125 22657ft 448kts
24-Jan-17 17:00 33.337062 -113.481264 122 20711ft 461kts
24-Jan-17 17:01 33.274672 -113.347992 121 18742ft 457kts
24-Jan-17 17:02 33.212813 -113.216196 121 16435ft 456kts
24-Jan-17 17:03 33.151383 -113.085717 120 14308ft 445kts
24-Jan-17 17:04 33.092256 -112.960615 120 13016ft 416kts
24-Jan-17 17:05 33.038405 -112.846763 121 12047ft 384kts
24-Jan-17 17:06 33.000296 -112.739273 111 12025ft 331kts
24-Jan-17 17:07 32.974143 -112.634024 85 12027ft 337kts
24-Jan-17 17:08 33.013204 -112.533118 61 12038ft 339kts
24-Jan-17 17:09 33.056522 -112.435350 61 12000ft 328kts
24-Jan-17 17:10 33.098079 -112.341193 61 12006ft 318kts
24-Jan-17 17:11 33.140901 -112.244373 61 10575ft 342kts
24-Jan-17 17:12 33.184782 -112.146663 60 9301ft 317kts
24-Jan-17 17:13 33.225348 -112.057136 60 8177ft 299kts
24-Jan-17 17:14 33.264563 -111.971605 60 7234ft 276kts
24-Jan-17 17:15 33.299244 -111.896843 61 6869ft 257kts
24-Jan-17 17:16 33.334880 -111.822619 54 5703ft 278kts
24-Jan-17 17:17 33.410054 -111.791015 7 3190ft 306kts
24-Jan-17 17:18 33.445580 -111.836782 264 2855ft 212kts
24-Jan-17 17:19 33.441527 -111.904232 263 2819ft 177kts
24-Jan-17 17:20 33.440506 -111.952497 266 1759ft 133kts
24-Jan-17 17:21 33.440842 -111.995758 267 1147ft 127kts
24-Jan-17 17:22 33.440267 -112.010810 207 1146ft 0kts
24-Jan-17 17:23 33.439753 -112.006749 90 1146ft 19kts

Navigation Log

Ident Type
1. KLAX Airport
2. SLI Navaid
3. TUSTI Fix
4. HEMET Fix
5. TRM Navaid
6. ARLIN Fix
7. KPHX Airport